createdAt,value
2022-09-15T00:02:24.627Z,95368.31
2022-09-15T00:04:51.122Z,95357.63
2022-09-15T00:07:17.698Z,95349.28
2022-09-15T00:09:44.098Z,95350.72
2022-09-15T00:12:10.583Z,95353.13
2022-09-15T00:14:37.085Z,95344.03
2022-09-15T00:17:03.786Z,95331.50
2022-09-15T00:19:30.253Z,95348.53
2022-09-15T00:21:56.670Z,95347.03
2022-09-15T00:24:23.092Z,95340.94
2022-09-15T00:26:49.532Z,95348.59
2022-09-15T00:29:16.055Z,95341.84
2022-09-15T00:31:42.481Z,95341.50
2022-09-15T00:34:12.422Z,95341.41
2022-09-15T00:36:38.975Z,95344.50
2022-09-15T00:39:05.831Z,95337.81
2022-09-15T00:41:32.658Z,95341.41
2022-09-15T00:44:07.040Z,95330.41
2022-09-15T00:46:36.916Z,95324.34
2022-09-15T00:49:18.764Z,95325.00
2022-09-15T00:51:58.918Z,95325.59
2022-09-15T00:54:38.584Z,95332.03
2022-09-15T00:57:11.582Z,95335.53
2022-09-15T00:59:41.423Z,95341.81
2022-09-15T01:02:29.496Z,95353.41
2022-09-15T01:04:58.784Z,95355.72
2022-09-15T01:07:43.139Z,95342.78
2022-09-15T01:13:50.360Z,95322.94
2022-09-15T01:16:32.932Z,95324.78
2022-09-15T01:19:37.393Z,95321.69
2022-09-15T01:22:22.753Z,95314.25
2022-09-15T01:25:23.422Z,95316.16
2022-09-15T01:28:18.202Z,95297.72
2022-09-15T01:30:59.383Z,95305.66
2022-09-15T01:33:47.890Z,95295.88
2022-09-15T01:36:19.348Z,95299.69
2022-09-15T01:39:01.090Z,95299.69
2022-09-15T01:41:29.518Z,95294.81
2022-09-15T01:44:07.981Z,95300.16
2022-09-15T01:46:46.861Z,95305.50
2022-09-15T01:49:18.001Z,95308.88
2022-09-15T01:51:48.294Z,95311.75
2022-09-15T01:54:16.911Z,95301.06
2022-09-15T01:56:43.916Z,95309.66
2022-09-15T01:59:11.216Z,95308.91
2022-09-15T02:02:10.084Z,95305.50
2022-09-15T02:04:46.981Z,95296.63
2022-09-15T02:07:20.642Z,95299.31
2022-09-15T02:10:01.351Z,95297.84
2022-09-15T02:12:39.238Z,95304.28
2022-09-15T02:15:09.659Z,95301.13
2022-09-15T02:17:45.663Z,95303.31
2022-09-15T02:20:23.646Z,95298.09
2022-09-15T02:22:55.665Z,95293.56
2022-09-15T02:25:28.898Z,95292.31
2022-09-15T02:28:00.312Z,95299.47
2022-09-15T02:30:29.477Z,95291.09
2022-09-15T02:32:59.285Z,95291.91
2022-09-15T02:35:28.744Z,95294.50
2022-09-15T02:37:56.268Z,95293.50
2022-09-15T02:40:23.343Z,95292.75
2022-09-15T02:42:55.943Z,95293.13
2022-09-15T02:45:24.691Z,95290.47
2022-09-15T02:47:51.425Z,95287.47
2022-09-15T02:50:18.933Z,95282.22
2022-09-15T02:52:45.387Z,95290.16
2022-09-15T02:55:12.061Z,95284.44
2022-09-15T02:57:38.662Z,95291.06
2022-09-15T03:00:13.239Z,95290.69
2022-09-15T03:02:41.143Z,95273.88
2022-09-15T03:05:09.425Z,95278.72
2022-09-15T03:07:37.574Z,95284.19
2022-09-15T03:10:06.405Z,95282.28
2022-09-15T03:12:38.107Z,95287.03
2022-09-15T03:15:05.392Z,95284.03
2022-09-15T03:17:35.617Z,95278.00
2022-09-15T03:20:03.222Z,95284.03
2022-09-15T03:22:29.700Z,95274.00
2022-09-15T03:24:56.148Z,95277.16
2022-09-15T03:27:23.271Z,95276.41
2022-09-15T03:29:49.954Z,95266.09
2022-09-15T03:32:16.411Z,95265.34
2022-09-15T03:34:42.878Z,95274.84
2022-09-15T03:37:09.358Z,95274.97
2022-09-15T03:39:35.796Z,95273.34
2022-09-15T03:42:02.254Z,95270.84
2022-09-15T03:44:28.810Z,95267.13
2022-09-15T03:46:55.251Z,95280.78
2022-09-15T03:49:21.903Z,95272.44
2022-09-15T03:51:48.358Z,95277.38
2022-09-15T03:54:14.767Z,95276.09
2022-09-15T03:56:41.201Z,95286.19
2022-09-15T03:59:08.601Z,95283.53
2022-09-15T04:01:35.889Z,95284.34
2022-09-15T04:04:02.689Z,95276.41
2022-09-15T04:06:29.181Z,95269.16
2022-09-15T04:08:55.664Z,95279.28
2022-09-15T04:11:22.698Z,95276.53
2022-09-15T04:13:49.916Z,95282.97
2022-09-15T04:16:19.041Z,95269.22
2022-09-15T04:18:46.389Z,95272.91
2022-09-15T04:21:16.715Z,95272.81
2022-09-15T04:23:44.315Z,95269.06
2022-09-15T04:26:33.024Z,95276.06
2022-09-15T04:29:04.215Z,95265.72
2022-09-15T04:31:31.742Z,95276.19
2022-09-15T04:33:58.319Z,95266.28
2022-09-15T04:36:28.207Z,95271.69
2022-09-15T04:38:55.765Z,95272.44
2022-09-15T04:41:22.685Z,95269.53
2022-09-15T04:43:49.689Z,95264.25
2022-09-15T04:46:18.201Z,95269.34
2022-09-15T04:48:46.227Z,95246.25
2022-09-15T04:51:17.008Z,95259.19
2022-09-15T04:53:44.284Z,95255.00
2022-09-15T04:56:13.525Z,95242.38
2022-09-15T04:58:45.346Z,95252.19
2022-09-15T05:01:13.421Z,95260.28
2022-09-15T05:03:40.628Z,95254.47
2022-09-15T05:06:08.898Z,95248.78
2022-09-15T05:08:35.668Z,95259.19
2022-09-15T05:11:04.209Z,95257.25
2022-09-15T05:13:30.831Z,95260.78
2022-09-15T05:16:03.940Z,95263.34
2022-09-15T05:18:31.502Z,95261.84
2022-09-15T05:20:59.760Z,95265.25
2022-09-15T05:23:26.385Z,95266.81
2022-09-15T05:25:57.709Z,95273.59
2022-09-15T05:28:24.861Z,95274.81
2022-09-15T05:30:52.372Z,95277.59
2022-09-15T05:33:20.420Z,95273.13
2022-09-15T05:35:54.166Z,95276.63
2022-09-15T05:38:20.722Z,95275.25
2022-09-15T05:40:47.435Z,95277.06
2022-09-15T05:43:14.512Z,95275.88
2022-09-15T05:45:43.904Z,95261.28
2022-09-15T05:48:12.104Z,95275.13
2022-09-15T05:50:39.613Z,95279.66
2022-09-15T05:53:07.562Z,95279.75
2022-09-15T05:55:38.030Z,95284.91
2022-09-15T05:58:04.491Z,95285.47
2022-09-15T06:00:30.952Z,95288.44
2022-09-15T06:02:57.459Z,95283.00
2022-09-15T06:05:23.953Z,95286.66
2022-09-15T06:07:55.681Z,95288.59
2022-09-15T06:10:24.916Z,95298.59
2022-09-15T06:12:55.188Z,95292.63
2022-09-15T06:15:22.955Z,95304.47
2022-09-15T06:17:49.881Z,95306.34
2022-09-15T06:20:16.847Z,95303.16
2022-09-15T06:22:43.339Z,95305.50
2022-09-15T06:25:10.920Z,95304.84
2022-09-15T06:27:37.394Z,95314.19
2022-09-15T06:30:04.492Z,95303.66
2022-09-15T06:32:31.068Z,95312.09
2022-09-15T06:34:57.746Z,95317.44
2022-09-15T06:37:24.260Z,95320.69
2022-09-15T06:39:51.141Z,95327.72
2022-09-15T06:42:17.706Z,95325.47
2022-09-15T06:44:44.123Z,95329.88
2022-09-15T06:47:10.720Z,95330.56
2022-09-15T06:49:37.224Z,95333.63
2022-09-15T06:52:05.124Z,95335.28
2022-09-15T06:54:31.649Z,95331.63
2022-09-15T06:56:58.099Z,95336.28
2022-09-15T06:59:24.626Z,95330.25
2022-09-15T07:01:54.776Z,95337.88
2022-09-15T07:04:23.046Z,95335.19
2022-09-15T07:06:50.484Z,95328.94
2022-09-15T07:09:17.108Z,95328.78
2022-09-15T07:11:43.556Z,95331.06
2022-09-15T07:14:11.152Z,95332.19
2022-09-15T07:16:38.218Z,95329.47
2022-09-15T07:19:05.952Z,95327.69
2022-09-15T07:21:33.516Z,95331.53
2022-09-15T07:24:02.687Z,95340.63
2022-09-15T07:26:33.860Z,95333.78
2022-09-15T07:29:02.389Z,95334.72
2022-09-15T07:31:31.496Z,95335.44
2022-09-15T07:34:01.530Z,95333.13
2022-09-15T07:36:29.145Z,95340.19
2022-09-15T07:38:55.610Z,95345.81
2022-09-15T07:41:29.465Z,95349.91
2022-09-15T07:43:58.540Z,95344.22
2022-09-15T07:46:27.093Z,95345.84
2022-09-15T07:48:56.470Z,95346.41
2022-09-15T07:51:24.285Z,95348.50
2022-09-15T07:53:52.122Z,95349.25
2022-09-15T07:56:19.221Z,95354.84
2022-09-15T07:58:46.744Z,95347.06
2022-09-15T08:01:14.968Z,95344.75
2022-09-15T08:03:48.761Z,95353.41
2022-09-15T08:06:17.473Z,95350.31
2022-09-15T08:08:44.236Z,95342.66
2022-09-15T08:11:18.549Z,95351.06
2022-09-15T08:13:49.658Z,95348.00
2022-09-15T08:16:18.974Z,95348.53
2022-09-15T08:18:45.970Z,95348.38
2022-09-15T08:21:15.363Z,95353.59
2022-09-15T08:23:41.955Z,95356.66
2022-09-15T08:26:13.897Z,95367.06
2022-09-15T08:28:41.471Z,95356.63
2022-09-15T08:31:10.278Z,95370.53
2022-09-15T08:33:38.223Z,95356.69
2022-09-15T08:36:12.504Z,95357.09
2022-09-15T08:38:40.818Z,95353.06
2022-09-15T08:41:16.331Z,95359.09
2022-09-15T08:43:53.334Z,95359.94
2022-09-15T08:46:24.779Z,95370.03
2022-09-15T08:49:02.742Z,95369.78
2022-09-15T08:51:37.048Z,95364.81
2022-09-15T08:54:08.991Z,95366.59
2022-09-15T08:56:37.078Z,95368.75
2022-09-15T08:59:04.253Z,95364.88
2022-09-15T09:01:47.436Z,95369.44
2022-09-15T09:04:30.692Z,95360.31
2022-09-15T09:07:15.611Z,95355.13
2022-09-15T09:10:17.401Z,95356.94
2022-09-15T09:12:50.361Z,95356.09
2022-09-15T09:15:33.313Z,95349.31
2022-09-15T09:18:27.936Z,95345.47
2022-09-15T09:21:18.185Z,95352.22
2022-09-15T09:24:01.247Z,95347.09
2022-09-15T09:26:31.312Z,95353.72
2022-09-15T09:29:33.142Z,95350.28
2022-09-15T09:32:01.357Z,95351.13
2022-09-15T09:34:40.261Z,95346.63
2022-09-15T09:37:17.275Z,95333.50
2022-09-15T09:39:43.741Z,95337.28
2022-09-15T09:42:15.839Z,95337.13
2022-09-15T09:44:42.667Z,95331.88
2022-09-15T09:47:09.309Z,95325.22
2022-09-15T09:49:42.475Z,95327.03
2022-09-15T09:52:09.234Z,95321.75
2022-09-15T09:54:35.701Z,95320.66
2022-09-15T09:57:14.152Z,95318.97
2022-09-15T09:59:46.131Z,95316.44
2022-09-15T10:02:13.060Z,95319.97
2022-09-15T10:04:41.403Z,95311.53
2022-09-15T10:07:08.857Z,95308.00
2022-09-15T10:09:36.927Z,95306.84
2022-09-15T10:12:05.682Z,95302.00
2022-09-15T10:14:40.027Z,95300.75
2022-09-15T10:17:10.735Z,95298.22
2022-09-15T10:19:46.285Z,95298.91
2022-09-15T10:22:24.955Z,95302.38
2022-09-15T10:24:51.451Z,95291.56
2022-09-15T10:27:19.658Z,95296.25
2022-09-15T10:29:47.325Z,95287.13
2022-09-15T10:32:25.451Z,95290.94
2022-09-15T10:35:03.657Z,95277.19
2022-09-15T10:37:33.065Z,95277.34
2022-09-15T10:40:06.481Z,95277.31
2022-09-15T10:42:44.595Z,95268.31
2022-09-15T10:45:24.751Z,95269.66
2022-09-15T10:47:54.198Z,95279.53
2022-09-15T10:50:56.045Z,95279.41
2022-09-15T10:53:47.930Z,95264.13
2022-09-15T10:56:21.246Z,95260.25
2022-09-15T10:59:24.999Z,95259.50
2022-09-15T11:02:12.791Z,95260.41
2022-09-15T11:05:05.739Z,95259.91
2022-09-15T11:07:51.163Z,95246.44
2022-09-15T11:10:35.342Z,95250.94
2022-09-15T11:13:24.281Z,95260.34
2022-09-15T11:16:24.532Z,95258.63
2022-09-15T11:19:12.000Z,95248.94
2022-09-15T11:21:43.158Z,95240.44
2022-09-15T11:24:49.829Z,95240.53
2022-09-15T11:27:33.335Z,95233.84
2022-09-15T11:30:07.504Z,95242.97
2022-09-15T11:32:47.653Z,95228.75
2022-09-15T11:35:31.466Z,95227.75
2022-09-15T11:38:13.046Z,95226.00
2022-09-15T11:40:47.760Z,95226.25
2022-09-15T11:43:30.358Z,95213.81
2022-09-15T11:45:58.103Z,95223.88
2022-09-15T11:48:33.953Z,95246.09
2022-09-15T11:51:03.257Z,95287.72
2022-09-15T11:53:42.920Z,95272.94
2022-09-15T11:56:24.524Z,95272.84
2022-09-15T11:59:03.758Z,95276.09
2022-09-15T12:01:53.522Z,95270.06
2022-09-15T12:04:27.721Z,95285.97
2022-09-15T12:06:56.854Z,95279.34
2022-09-15T12:09:23.385Z,95292.31
2022-09-15T12:11:54.488Z,95297.34
2022-09-15T12:14:37.304Z,95284.34
2022-09-15T12:17:09.805Z,95282.09
2022-09-15T12:19:54.328Z,95289.09
2022-09-15T12:22:42.787Z,95272.09
2022-09-15T12:25:20.997Z,95281.53
2022-09-15T12:28:27.109Z,95268.47
2022-09-15T12:31:23.455Z,95270.63
2022-09-15T12:34:12.777Z,95276.72
2022-09-15T12:36:45.693Z,95279.16
2022-09-15T12:39:24.392Z,95289.53
2022-09-15T12:41:56.128Z,95296.53
2022-09-15T12:44:24.920Z,95302.78
2022-09-15T12:46:54.294Z,95330.91
2022-09-15T12:49:28.264Z,95337.16
2022-09-15T12:51:55.305Z,95357.38
2022-09-15T12:54:29.576Z,95352.59
2022-09-15T12:56:57.404Z,95352.59
2022-09-15T12:59:26.253Z,95352.84
2022-09-15T13:01:54.360Z,95353.34
2022-09-15T13:04:43.967Z,95348.56
2022-09-15T13:07:16.530Z,95346.41
2022-09-15T13:10:14.436Z,95344.97
2022-09-15T13:12:48.352Z,95346.66
2022-09-15T13:15:18.655Z,95347.56
2022-09-15T13:17:46.657Z,95345.97
2022-09-15T13:20:20.028Z,95345.97
2022-09-15T13:22:51.556Z,95327.34
2022-09-15T13:25:23.819Z,95326.22
2022-09-15T13:27:55.066Z,95335.78
2022-09-15T13:30:21.547Z,95321.63
2022-09-15T13:33:01.780Z,95317.53
2022-09-15T13:35:36.201Z,95319.03
2022-09-15T13:38:40.280Z,95319.44
2022-09-15T13:41:41.543Z,95314.59
2022-09-15T13:44:17.887Z,95311.50
2022-09-15T13:46:47.522Z,95309.25
2022-09-15T13:49:35.754Z,95298.00
2022-09-15T13:52:23.381Z,95298.06
2022-09-15T13:55:10.299Z,95292.22
2022-09-15T14:00:32.053Z,95294.50
2022-09-15T14:03:23.886Z,95281.81
2022-09-15T14:05:50.483Z,95282.97
2022-09-15T14:08:27.031Z,95292.59
2022-09-15T14:10:55.741Z,95287.25
2022-09-15T14:13:24.963Z,95288.91
2022-09-15T14:16:02.372Z,95291.00
2022-09-15T14:18:29.900Z,95285.56
2022-09-15T14:21:05.461Z,95293.94
2022-09-15T14:23:32.714Z,95289.59
2022-09-15T14:26:01.505Z,95285.75
2022-09-15T14:28:33.985Z,95298.66
2022-09-15T14:31:02.657Z,95298.09
2022-09-15T14:33:37.909Z,95297.59
2022-09-15T14:36:22.680Z,95301.50
2022-09-15T14:39:10.698Z,95303.09
2022-09-15T14:41:40.249Z,95308.28
2022-09-15T14:47:22.991Z,95316.31
2022-09-15T14:49:49.560Z,95303.00
2022-09-15T14:52:24.389Z,95297.59
2022-09-15T14:54:56.592Z,95297.47
2022-09-15T14:57:30.659Z,95294.22
2022-09-15T15:00:07.089Z,95312.19
2022-09-15T15:02:36.591Z,95318.34
2022-09-15T15:05:14.695Z,95304.50
2022-09-15T15:07:42.402Z,95310.19
2022-09-15T15:10:25.580Z,95296.66
2022-09-15T15:13:00.038Z,95282.69
2022-09-15T15:15:28.359Z,95284.63
2022-09-15T15:17:55.088Z,95285.38
2022-09-15T15:20:24.608Z,95283.34
2022-09-15T15:23:24.527Z,95273.81
2022-09-15T15:25:52.294Z,95277.00
2022-09-15T15:28:38.724Z,95284.84
2022-09-15T15:31:13.568Z,95289.63
2022-09-15T15:33:47.562Z,95297.50
2022-09-15T15:36:14.294Z,95299.16
2022-09-15T15:38:47.257Z,95310.69
2022-09-15T15:41:25.473Z,95295.59
2022-09-15T15:44:07.806Z,95295.50
2022-09-15T15:46:51.392Z,95295.00
2022-09-15T15:49:19.246Z,95304.84
2022-09-15T15:51:45.733Z,95310.75
2022-09-15T15:54:12.213Z,95316.75
2022-09-15T15:56:39.197Z,95323.00
2022-09-15T15:59:05.925Z,95308.47
2022-09-15T16:01:33.038Z,95321.63
2022-09-15T16:03:59.573Z,95332.78
2022-09-15T16:06:26.174Z,95324.56
2022-09-15T16:08:52.753Z,95323.66
2022-09-15T16:11:20.975Z,95326.97
2022-09-15T16:13:48.365Z,95339.28
2022-09-15T16:16:20.791Z,95345.41
2022-09-15T16:18:47.592Z,95343.44
2022-09-15T16:21:26.100Z,95358.53
2022-09-15T16:23:52.537Z,95351.03
2022-09-15T16:26:23.080Z,95345.22
2022-09-15T16:28:49.883Z,95353.81
2022-09-15T16:31:16.327Z,95356.00
2022-09-15T16:33:45.421Z,95367.09
2022-09-15T16:36:14.422Z,95368.41
2022-09-15T16:38:42.258Z,95373.31
2022-09-15T16:41:17.549Z,95380.16
2022-09-15T16:43:45.456Z,95385.06
2022-09-15T16:46:13.452Z,95393.06
2022-09-15T16:48:42.046Z,95394.06
2022-09-15T16:51:28.813Z,95399.38
2022-09-15T16:53:57.283Z,95400.84
2022-09-15T16:56:23.712Z,95400.88
2022-09-15T16:58:54.792Z,95402.53
2022-09-15T17:01:25.215Z,95413.19
2022-09-15T17:03:51.707Z,95416.78
2022-09-15T17:06:18.662Z,95411.53
2022-09-15T17:08:45.357Z,95422.50
2022-09-15T17:11:17.092Z,95423.72
2022-09-15T17:13:44.748Z,95431.06
2022-09-15T17:16:14.913Z,95442.19
2022-09-15T17:18:41.764Z,95427.00
2022-09-15T17:21:11.520Z,95438.34
2022-09-15T17:23:40.249Z,95444.03
2022-09-15T17:26:12.503Z,95457.00
2022-09-15T17:28:39.611Z,95458.19
2022-09-15T17:31:13.079Z,95455.63
2022-09-15T17:33:40.121Z,95462.88
2022-09-15T17:36:07.070Z,95466.31
2022-09-15T17:38:33.965Z,95481.97
2022-09-15T17:41:00.768Z,95474.41
2022-09-15T17:43:29.249Z,95472.53
2022-09-15T17:45:56.341Z,95472.63
2022-09-15T17:48:23.637Z,95475.06
2022-09-15T17:50:51.140Z,95473.09
2022-09-15T17:53:22.886Z,95482.31
2022-09-15T17:55:57.300Z,95485.06
2022-09-15T17:58:26.570Z,95494.56
2022-09-15T18:00:53.979Z,95501.81
2022-09-15T18:03:27.684Z,95495.31
2022-09-15T18:05:56.281Z,95496.22
2022-09-15T18:08:23.138Z,95500.06
2022-09-15T18:10:49.980Z,95495.50
2022-09-15T18:13:23.423Z,95502.41
2022-09-15T18:15:50.604Z,95511.88
2022-09-15T18:18:20.911Z,95514.25
2022-09-15T18:20:49.483Z,95531.34
2022-09-15T18:23:21.780Z,95542.03
2022-09-15T18:25:49.045Z,95543.53
2022-09-15T18:28:16.619Z,95549.69
2022-09-15T18:30:46.460Z,95547.03
2022-09-15T18:33:19.735Z,95544.81
2022-09-15T18:35:47.852Z,95552.06
2022-09-15T18:38:15.027Z,95554.75
2022-09-15T18:40:46.704Z,95550.25
2022-09-15T18:43:13.272Z,95571.94
2022-09-15T18:45:41.274Z,95570.84
2022-09-15T18:48:12.012Z,95579.22
2022-09-15T18:50:40.504Z,95584.91
2022-09-15T18:53:07.058Z,95584.56
2022-09-15T18:55:33.661Z,95581.94
2022-09-15T18:58:01.151Z,95593.78
2022-09-15T19:00:28.696Z,95590.38
2022-09-15T19:02:59.636Z,95611.28
2022-09-15T19:05:27.410Z,95621.50
2022-09-15T19:07:54.129Z,95626.06
2022-09-15T19:10:21.197Z,95621.53
2022-09-15T19:12:47.650Z,95627.22
2022-09-15T19:15:14.494Z,95625.00
2022-09-15T19:17:42.450Z,95633.72
2022-09-15T19:20:10.978Z,95628.78
2022-09-15T19:22:37.957Z,95618.56
2022-09-15T19:25:05.704Z,95628.09
2022-09-15T19:27:32.207Z,95633.78
2022-09-15T19:29:58.683Z,95630.81
2022-09-15T19:32:25.086Z,95644.88
2022-09-15T19:34:51.573Z,95644.13
2022-09-15T19:37:20.325Z,95639.63
2022-09-15T19:39:48.131Z,95643.81
2022-09-15T19:44:42.280Z,95651.81
2022-09-15T19:47:09.210Z,95656.75
2022-09-15T19:49:35.707Z,95655.56
2022-09-15T19:52:02.228Z,95653.69
2022-09-15T19:54:30.307Z,95653.72
2022-09-15T19:56:57.312Z,95668.16
2022-09-15T19:59:28.683Z,95668.94
2022-09-15T20:01:57.479Z,95671.94
2022-09-15T20:04:24.106Z,95682.94
2022-09-15T20:06:50.606Z,95679.16
2022-09-15T20:09:17.658Z,95678.03
2022-09-15T20:11:44.311Z,95688.66
2022-09-15T20:14:10.931Z,95689.41
2022-09-15T20:16:37.768Z,95688.28
2022-09-15T20:19:04.946Z,95691.34
2022-09-15T20:21:50.695Z,95692.09
2022-09-15T20:24:18.572Z,95698.16
2022-09-15T20:26:45.050Z,95695.09
2022-09-15T20:29:11.613Z,95682.63
2022-09-15T20:31:38.072Z,95693.63
2022-09-15T20:34:05.140Z,95697.78
2022-09-15T20:36:34.130Z,95693.63
2022-09-15T20:39:03.266Z,95694.78
2022-09-15T20:41:31.969Z,95701.97
2022-09-15T20:43:58.727Z,95706.16
2022-09-15T20:46:25.344Z,95711.88
2022-09-15T20:48:52.426Z,95715.25
2022-09-15T20:51:24.510Z,95712.97
2022-09-15T20:53:53.525Z,95714.50
2022-09-15T20:56:24.805Z,95709.56
2022-09-15T20:58:56.575Z,95706.16
2022-09-15T21:01:28.650Z,95708.44
2022-09-15T21:03:55.680Z,95707.69
2022-09-15T21:06:25.199Z,95704.28
2022-09-15T21:08:53.412Z,95713.75
2022-09-15T21:11:21.042Z,95707.31
2022-09-15T21:13:48.420Z,95701.28
2022-09-15T21:16:18.074Z,95713.00
2022-09-15T21:18:45.499Z,95713.78
2022-09-15T21:21:32.578Z,95721.72
2022-09-15T21:24:04.301Z,95717.50
2022-09-15T21:26:59.221Z,95721.31
2022-09-15T21:29:27.600Z,95728.88
2022-09-15T21:31:55.793Z,95732.69
2022-09-15T21:34:23.860Z,95731.91
2022-09-15T21:36:51.878Z,95737.22
2022-09-15T21:39:18.385Z,95739.50
2022-09-15T21:41:44.829Z,95739.13
2022-09-15T21:44:11.629Z,95742.53
2022-09-15T21:46:38.128Z,95753.53
2022-09-15T21:49:04.560Z,95755.03
2022-09-15T21:51:30.990Z,95754.25
2022-09-15T21:53:59.459Z,95756.53
2022-09-15T21:56:27.437Z,95744.81
2022-09-15T21:58:54.581Z,95742.94
2022-09-15T22:01:26.702Z,95753.56
2022-09-15T22:03:54.269Z,95750.91
2022-09-15T22:06:27.408Z,95752.44
2022-09-15T22:08:54.711Z,95750.53
2022-09-15T22:11:21.286Z,95755.44
2022-09-15T22:13:47.836Z,95761.53
2022-09-15T22:16:20.398Z,95750.91
2022-09-15T22:18:47.710Z,95749.41
2022-09-15T22:21:20.311Z,95753.19
2022-09-15T22:23:48.605Z,95756.53
2022-09-15T22:26:20.855Z,95754.66
2022-09-15T22:28:47.933Z,95753.91
2022-09-15T22:31:17.139Z,95748.59
2022-09-15T22:33:43.874Z,95752.75
2022-09-15T22:36:11.867Z,95749.34
2022-09-15T22:38:38.839Z,95755.41
2022-09-15T22:41:09.179Z,95746.69
2022-09-15T22:43:36.265Z,95750.84
2022-09-15T22:46:03.094Z,95752.38
2022-09-15T22:48:29.640Z,95756.94
2022-09-15T22:50:56.121Z,95754.69
2022-09-15T22:53:23.576Z,95742.94
2022-09-15T22:55:51.041Z,95733.44
2022-09-15T22:58:17.609Z,95743.66
2022-09-15T23:00:44.123Z,95738.41
2022-09-15T23:03:11.451Z,95736.13
2022-09-15T23:05:38.084Z,95738.72
2022-09-15T23:08:04.636Z,95722.84
2022-09-15T23:10:31.429Z,95725.84
2022-09-15T23:12:59.072Z,95713.75
2022-09-15T23:15:25.500Z,95714.13
2022-09-15T23:17:52.211Z,95710.31
2022-09-15T23:20:19.034Z,95706.91
2022-09-15T23:22:45.680Z,95705.41
2022-09-15T23:25:12.136Z,95705.03
2022-09-15T23:27:38.559Z,95702.75
2022-09-15T23:30:05.401Z,95705.03
2022-09-15T23:32:31.893Z,95715.25
2022-09-15T23:34:58.334Z,95690.25
2022-09-15T23:37:24.824Z,95705.78
2022-09-15T23:39:52.305Z,95706.94
2022-09-15T23:42:19.094Z,95709.56
2022-09-15T23:44:45.800Z,95696.31
2022-09-15T23:47:12.239Z,95699.72
2022-09-15T23:49:38.653Z,95697.81
2022-09-15T23:52:05.129Z,95704.25
2022-09-15T23:54:31.589Z,95699.72
2022-09-15T23:56:58.061Z,95706.16
2022-09-15T23:59:24.603Z,95695.19
